Time;durP1;ratioP1;P1;durP2;ratioP2;P2;SDS_P1;SDS_P2;PMS_P1;PMS_P2;Temp;Humidity;BMP_temperature;BMP_pressure;BME280_temperature;BME280_humidity;BME280_pressure;Samples;Min_cycle;Max_cycle;Signal;HPM_P1;HPM_P2
2021/12/08 00:00:47;;;;;;;;;;;;;;;6.22;100.00;95011.72;5106046;28;20367;-83
2021/12/08 00:05:12;;;;;;;;;;;;;;;6.98;100.00;95016.31;5090943;28;19926;-83
2021/12/08 00:07:40;;;;;;;;;;;;;;;7.13;100.00;95014.84;5090629;28;20302;-82
2021/12/08 00:10:29;;;;;;;;;;;;;;;7.09;100.00;95008.00;5088787;28;19928;-85
2021/12/08 00:13:04;;;;;;;;;;;;;;;7.00;100.00;95011.00;5109718;28;19983;-87
2021/12/08 00:15:33;;;;;;;;;;;;;;;6.79;100.00;95017.94;5082287;28;19932;-87
2021/12/08 00:18:00;;;;;;;;;;;;;;;6.97;100.00;95012.00;5086112;28;20401;-87
2021/12/08 00:20:31;;;;;;;;;;;;;;;7.60;100.00;95002.19;5085994;28;19924;-87
2021/12/08 00:23:01;;;;;;;;;;;;;;;7.53;100.00;94996.34;5078943;28;19925;-88
2021/12/08 00:25:29;;;;;;;;;;;;;;;6.96;100.00;94997.38;5085232;28;20015;-87
2021/12/08 00:27:57;;;;;;;;;;;;;;;6.81;100.00;95009.88;5087895;28;20291;-88
2021/12/08 00:30:24;;;;;;;;;;;;;;;6.86;100.00;95007.13;5085364;28;19924;-87
2021/12/08 00:32:53;;;;;;;;;;;;;;;6.73;100.00;95009.59;5082611;28;20304;-87
2021/12/08 00:35:20;;;;;;;;;;;;;;;7.05;100.00;94999.94;5105165;28;20398;-88
2021/12/08 00:37:48;;;;;;;;;;;;;;;6.90;100.00;94990.28;5088301;28;19948;-88
2021/12/08 00:40:15;;;;;;;;;;;;;;;6.86;100.00;94984.22;5122594;27;19931;-88
2021/12/08 00:42:44;;;;;;;;;;;;;;;6.81;100.00;94973.81;5088851;28;19929;-87
2021/12/08 00:45:11;;;;;;;;;;;;;;;7.21;100.00;94976.28;5105396;28;19947;-87
2021/12/08 00:47:39;;;;;;;;;;;;;;;6.77;100.00;94942.81;5088506;28;19931;-87
2021/12/08 00:50:08;;;;;;;;;;;;;;;7.26;100.00;94931.13;5071778;28;19924;-87
2021/12/08 00:52:35;;;;;;;;;;;;;;;6.77;100.00;94942.81;5089842;28;19924;-87
2021/12/08 00:55:06;;;;;;;;;;;;;;;7.22;100.00;94942.47;5055509;28;19925;-87
2021/12/08 00:57:33;;;;;;;;;;;;;;;7.32;100.00;94932.69;5105249;28;19932;-87
2021/12/08 01:00:03;;;;;;;;;;;;;;;7.13;100.00;94925.28;5088284;28;19928;-87
2021/12/08 01:02:30;;;;;;;;;;;;;;;6.84;100.00;94920.13;5103890;28;19924;-85
2021/12/08 01:04:59;;;;;;;;;;;;;;;7.18;100.00;94927.31;5071444;28;20067;-86
2021/12/08 01:07:30;;;;;;;;;;;;;;;6.73;100.00;94914.53;5071563;28;19924;-87
2021/12/08 01:09:57;;;;;;;;;;;;;;;7.21;100.00;94893.00;5071230;28;19930;-87
2021/12/08 01:12:24;;;;;;;;;;;;;;;7.03;100.00;94893.47;5088085;28;19925;-87
2021/12/08 01:14:51;;;;;;;;;;;;;;;7.04;100.00;94892.22;5083790;28;19924;-87
2021/12/08 01:17:18;;;;;;;;;;;;;;;7.08;100.00;94890.72;5058106;28;19924;-87
2021/12/08 01:19:45;;;;;;;;;;;;;;;7.01;100.00;94884.91;5075757;28;19924;-85
2021/12/08 01:22:12;;;;;;;;;;;;;;;7.00;100.00;94888.91;5074862;28;20323;-86
2021/12/08 01:24:39;;;;;;;;;;;;;;;7.02;100.00;94892.72;5091441;28;19924;-86
2021/12/08 01:27:06;;;;;;;;;;;;;;;6.79;100.00;94915.31;5074187;28;19931;-88
2021/12/08 01:29:34;;;;;;;;;;;;;;;7.06;100.00;94901.56;5074161;28;19929;-87
2021/12/08 01:32:01;;;;;;;;;;;;;;;6.74;100.00;94838.41;5074326;28;19928;-87
2021/12/08 01:34:28;;;;;;;;;;;;;;;6.59;100.00;94863.53;5057578;28;20018;-86
2021/12/08 01:36:55;;;;;;;;;;;;;;;6.52;100.00;94894.53;5091350;28;20357;-86
2021/12/08 01:39:22;;;;;;;;;;;;;;;6.66;100.00;94910.22;5091087;28;20089;-86
2021/12/08 01:41:52;;;;;;;;;;;;;;;6.72;100.00;94919.34;5074160;28;19931;-87
2021/12/08 01:47:05;;;;;;;;;;;;;;;6.85;100.00;94894.66;5075278;28;20275;-86
2021/12/08 01:49:32;;;;;;;;;;;;;;;6.82;100.00;94895.66;5074038;28;20332;-86
2021/12/08 01:51:59;;;;;;;;;;;;;;;6.54;100.00;94908.63;5057554;28;19924;-86
2021/12/08 01:54:27;;;;;;;;;;;;;;;6.64;100.00;94893.31;5074111;28;20295;-86
2021/12/08 01:56:57;;;;;;;;;;;;;;;6.41;100.00;94896.44;5107246;28;19924;-87
2021/12/08 01:59:24;;;;;;;;;;;;;;;6.52;100.00;94929.78;5090169;28;20405;-86
2021/12/08 02:01:51;;;;;;;;;;;;;;;6.70;100.00;94934.94;5090416;28;20392;-87
2021/12/08 02:04:18;;;;;;;;;;;;;;;6.53;100.00;94928.53;5073521;28;20376;-87
2021/12/08 02:06:46;;;;;;;;;;;;;;;6.89;100.00;94936.78;5090425;28;20391;-87
2021/12/08 02:09:14;;;;;;;;;;;;;;;7.02;100.00;94947.44;5107130;28;19956;-87
2021/12/08 02:11:45;;;;;;;;;;;;;;;6.70;100.00;94948.81;5074369;28;20442;-86
2021/12/08 02:14:13;;;;;;;;;;;;;;;6.58;100.00;94941.66;5073630;28;19925;-87
2021/12/08 02:16:40;;;;;;;;;;;;;;;6.40;100.00;94911.56;5073613;28;19924;-86
2021/12/08 02:19:07;;;;;;;;;;;;;;;6.84;100.00;94926.44;5073192;28;19924;-87
2021/12/08 02:21:39;;;;;;;;;;;;;;;6.95;100.00;94929.25;5056777;28;19929;-87
2021/12/08 02:24:09;;;;;;;;;;;;;;;7.11;100.00;94941.69;5089823;28;19924;-86
2021/12/08 02:26:37;;;;;;;;;;;;;;;7.26;100.00;94945.78;5055565;28;20408;-87
2021/12/08 02:29:07;;;;;;;;;;;;;;;6.77;100.00;94940.78;5056753;28;19964;-87
2021/12/08 02:31:43;;;;;;;;;;;;;;;6.50;100.00;94929.53;5056675;28;19929;-87
2021/12/08 02:48:00;;;;;;;;;;;;;;;6.48;100.00;94987.50;5072617;28;20014;-86
2021/12/08 02:50:29;;;;;;;;;;;;;;;6.26;100.00;94976.22;5072742;28;19928;-86
2021/12/08 02:52:57;;;;;;;;;;;;;;;6.30;100.00;94987.88;5072628;28;19931;-86
2021/12/08 02:55:25;;;;;;;;;;;;;;;6.55;100.00;95004.44;5039064;28;19925;-87
2021/12/08 02:57:52;;;;;;;;;;;;;;;6.07;100.00;94991.72;5089865;28;19924;-87
2021/12/08 03:00:24;;;;;;;;;;;;;;;6.01;100.00;94988.13;5089833;28;20461;-86
2021/12/08 03:02:51;;;;;;;;;;;;;;;6.37;100.00;94995.72;5072452;28;19932;-87
2021/12/08 03:05:18;;;;;;;;;;;;;;;6.24;100.00;94995.38;5089416;28;19925;-86
2021/12/08 03:07:46;;;;;;;;;;;;;;;6.13;100.00;95015.44;5073685;28;19925;-87
2021/12/08 03:10:17;;;;;;;;;;;;;;;6.11;100.00;95006.84;5072021;28;19924;-87
2021/12/08 03:12:44;;;;;;;;;;;;;;;6.00;100.00;95017.09;5056051;28;19933;-87
2021/12/08 03:15:12;;;;;;;;;;;;;;;6.17;100.00;95010.44;5055720;28;19924;-87
2021/12/08 03:17:39;;;;;;;;;;;;;;;6.43;100.00;95025.00;5055771;28;20444;-87
2021/12/08 03:20:09;;;;;;;;;;;;;;;6.28;100.00;95023.63;5055751;28;20279;-86
2021/12/08 03:22:42;;;;;;;;;;;;;;;6.20;100.00;95022.53;5055695;28;19931;-87
2021/12/08 03:25:12;;;;;;;;;;;;;;;5.97;100.00;95012.53;5088614;28;19928;-86
2021/12/08 03:27:47;;;;;;;;;;;;;;;5.91;100.00;95000.66;5105561;28;19931;-87
2021/12/08 03:30:40;;;;;;;;;;;;;;;6.05;100.00;95013.59;5072012;28;20405;-86
2021/12/08 03:33:02;;;;;;;;;;;;;;;6.07;100.00;95002.78;5073212;28;20023;-86
2021/12/08 03:35:29;;;;;;;;;;;;;;;6.29;100.00;95016.81;5072067;28;20019;-87
2021/12/08 03:37:58;;;;;;;;;;;;;;;6.33;100.00;95020.16;5055338;28;19931;-87
2021/12/08 03:40:26;;;;;;;;;;;;;;;6.53;100.00;95011.72;5088321;28;19928;-87
2021/12/08 03:42:55;;;;;;;;;;;;;;;6.40;100.00;95003.06;5088642;28;19925;-86
2021/12/08 03:45:22;;;;;;;;;;;;;;;6.31;100.00;95001.25;5055117;28;19973;-86
2021/12/08 03:47:57;;;;;;;;;;;;;;;6.34;100.00;95029.97;5088730;28;19928;-85
2021/12/08 03:50:25;;;;;;;;;;;;;;;6.35;100.00;95023.16;5038802;28;20398;-86
2021/12/08 03:52:52;;;;;;;;;;;;;;;6.55;100.00;95025.84;5038459;28;20334;-86
2021/12/08 03:55:19;;;;;;;;;;;;;;;6.50;100.00;95021.78;5071652;28;19924;-86
2021/12/08 03:57:47;;;;;;;;;;;;;;;6.79;100.00;95040.13;5071789;28;19925;-87
2021/12/08 04:00:16;;;;;;;;;;;;;;;6.65;100.00;95035.50;5054876;28;19928;-87
2021/12/08 04:02:44;;;;;;;;;;;;;;;6.67;100.00;95038.53;5088351;28;20372;-86
2021/12/08 04:05:12;;;;;;;;;;;;;;;6.54;100.00;95036.16;5071882;28;19925;-85
2021/12/08 04:07:44;;;;;;;;;;;;;;;6.34;100.00;95029.97;5071609;28;19925;-85
2021/12/08 04:10:17;;;;;;;;;;;;;;;6.58;100.00;95038.72;5071513;28;19925;-86
2021/12/08 04:12:47;;;;;;;;;;;;;;;6.58;100.00;95030.41;5071746;28;19978;-86
2021/12/08 04:15:15;;;;;;;;;;;;;;;6.66;100.00;95031.47;5053789;28;19924;-86
2021/12/08 04:17:45;;;;;;;;;;;;;;;6.70;100.00;95032.00;5071478;28;19924;-86
2021/12/08 04:20:23;;;;;;;;;;;;;;;6.96;100.00;95039.00;5072624;28;19924;-86
2021/12/08 04:22:52;;;;;;;;;;;;;;;6.74;100.00;95047.16;5087938;28;19973;-86
2021/12/08 04:25:20;;;;;;;;;;;;;;;6.91;100.00;95031.38;5088220;28;20295;-86
2021/12/08 04:27:49;;;;;;;;;;;;;;;6.85;100.00;95035.38;5071554;28;19932;-86
2021/12/08 04:30:20;;;;;;;;;;;;;;;6.88;100.00;95026.06;5071573;28;19924;-86
2021/12/08 04:32:47;;;;;;;;;;;;;;;6.82;100.00;95039.13;5071378;28;19928;-86
2021/12/08 04:35:17;;;;;;;;;;;;;;;7.21;100.00;95023.47;5088389;28;19928;-86
2021/12/08 04:37:47;;;;;;;;;;;;;;;6.51;100.00;95041.97;5087834;28;19925;-86
2021/12/08 04:40:34;;;;;;;;;;;;;;;6.96;100.00;95041.00;5088363;28;19937;-86
2021/12/08 04:43:25;;;;;;;;;;;;;;;6.74;100.00;95043.66;5071575;28;19950;-86
2021/12/08 04:51:38;;;;;;;;;;;;;;;6.90;100.00;95034.66;5106872;28;19931;-86
2021/12/08 05:02:49;;;;;;;;;;;;;;;7.18;100.00;95035.56;5091549;28;19935;-87
2021/12/08 05:08:13;;;;;;;;;;;;;;;7.12;100.00;95026.44;5074436;28;19931;-86
2021/12/08 05:10:40;;;;;;;;;;;;;;;6.96;100.00;95021.56;5074668;28;20397;-86
2021/12/08 05:13:08;;;;;;;;;;;;;;;7.02;100.00;95039.00;5058272;28;19978;-86
2021/12/08 05:15:40;;;;;;;;;;;;;;;7.23;100.00;95027.28;5108246;28;19991;-86
2021/12/08 05:18:13;;;;;;;;;;;;;;;7.07;100.00;95022.38;5074415;28;20443;-86
2021/12/08 05:20:45;;;;;;;;;;;;;;;6.76;100.00;95035.56;5091471;28;19939;-86
2021/12/08 05:23:21;;;;;;;;;;;;;;;7.00;100.00;95044.28;5074511;28;19931;-86
2021/12/08 05:25:49;;;;;;;;;;;;;;;7.00;100.00;95038.75;5039258;28;20395;-86
2021/12/08 05:28:18;;;;;;;;;;;;;;;7.13;100.00;95027.97;5056458;28;19932;-86
2021/12/08 05:30:48;;;;;;;;;;;;;;;7.01;100.00;95026.41;5074809;28;19932;-86
2021/12/08 05:33:16;;;;;;;;;;;;;;;6.90;100.00;95046.53;5072334;28;19936;-86
2021/12/08 05:35:44;;;;;;;;;;;;;;;6.98;100.00;95030.91;5083491;28;19924;-86
2021/12/08 05:38:12;;;;;;;;;;;;;;;7.20;100.00;95024.72;5069855;28;20339;-87
2021/12/08 05:40:48;;;;;;;;;;;;;;;7.08;100.00;95045.34;5107655;28;19924;-86
2021/12/08 05:43:16;;;;;;;;;;;;;;;6.90;100.00;95037.44;5074242;28;19924;-86
2021/12/08 05:45:44;;;;;;;;;;;;;;;7.07;100.00;95033.47;5075252;28;19931;-86
2021/12/08 05:48:12;;;;;;;;;;;;;;;6.69;100.00;95033.25;5073677;28;19924;-86
2021/12/08 05:50:39;;;;;;;;;;;;;;;6.74;100.00;95027.00;5057479;28;20467;-86
2021/12/08 05:53:08;;;;;;;;;;;;;;;6.79;100.00;95031.81;5069795;28;19925;-86
2021/12/08 05:55:35;;;;;;;;;;;;;;;6.78;100.00;95038.63;5053906;28;19971;-86
2021/12/08 05:58:04;;;;;;;;;;;;;;;6.87;100.00;95038.44;5037470;28;20038;-86
2021/12/08 06:00:34;;;;;;;;;;;;;;;6.75;100.00;95034.84;5087176;28;20304;-85
2021/12/08 06:03:04;;;;;;;;;;;;;;;6.77;100.00;95031.56;5086355;28;19925;-86
2021/12/08 06:05:31;;;;;;;;;;;;;;;6.79;100.00;95051.22;5053338;28;19932;-86
2021/12/08 06:07:59;;;;;;;;;;;;;;;6.68;100.00;95048.41;5086691;28;19932;-86
2021/12/08 06:10:31;;;;;;;;;;;;;;;6.52;100.00;95057.34;5070006;28;19925;-86
2021/12/08 06:12:59;;;;;;;;;;;;;;;6.62;100.00;95053.88;5037097;28;20027;-86
2021/12/08 06:15:27;;;;;;;;;;;;;;;6.68;100.00;95051.16;5038424;28;20311;-86
2021/12/08 06:17:54;;;;;;;;;;;;;;;6.57;100.00;95053.84;5074352;28;20217;-86
2021/12/08 06:20:22;;;;;;;;;;;;;;;6.54;100.00;95057.59;5089811;28;19924;-86
2021/12/08 06:22:52;;;;;;;;;;;;;;;6.62;100.00;95064.22;5089967;28;19931;-86
2021/12/08 06:25:20;;;;;;;;;;;;;;;6.40;100.00;95052.94;5073156;28;20333;-86
2021/12/08 06:27:48;;;;;;;;;;;;;;;6.34;100.00;95064.00;5056781;28;19924;-86
2021/12/08 06:32:37;;;;;;;;;;;;;;;6.13;100.00;95070.09;5126634;27;19912;-87
2021/12/08 06:35:07;;;;;;;;;;;;;;;6.19;100.00;95059.81;5109687;28;19992;-86
2021/12/08 06:37:36;;;;;;;;;;;;;;;6.07;100.00;95064.50;5110990;28;20047;-86
2021/12/08 06:40:22;;;;;;;;;;;;;;;6.24;100.00;95062.63;5110801;28;20329;-87
2021/12/08 06:42:51;;;;;;;;;;;;;;;6.03;100.00;95063.22;5092907;28;19939;-87
2021/12/08 06:45:20;;;;;;;;;;;;;;;6.17;100.00;95065.09;5126653;28;20325;-87
2021/12/08 06:47:48;;;;;;;;;;;;;;;6.49;100.00;95061.84;5109146;28;19931;-87
2021/12/08 06:50:28;;;;;;;;;;;;;;;6.35;100.00;95067.50;5109273;28;20328;-87
2021/12/08 06:52:56;;;;;;;;;;;;;;;6.19;100.00;95068.91;5109364;28;20009;-86
2021/12/08 06:55:35;;;;;;;;;;;;;;;6.40;100.00;95069.59;5092654;28;19930;-87
2021/12/08 06:58:10;;;;;;;;;;;;;;;6.41;100.00;95076.63;5110592;28;20035;-87
2021/12/08 07:00:57;;;;;;;;;;;;;;;6.28;100.00;95087.38;5092274;28;19928;-87
2021/12/08 07:04:03;;;;;;;;;;;;;;;6.09;100.00;95077.88;5092245;28;19977;-87
2021/12/08 07:09:21;;;;;;;;;;;;;;;6.24;100.00;95078.53;5095095;28;19946;-87
2021/12/08 07:11:50;;;;;;;;;;;;;;;6.15;100.00;95103.63;5125870;28;19924;-87
2021/12/08 07:14:19;;;;;;;;;;;;;;;6.02;100.00;95106.00;5109056;28;19924;-86
2021/12/08 07:16:48;;;;;;;;;;;;;;;6.05;100.00;95111.34;5125646;27;19931;-87
2021/12/08 07:19:26;;;;;;;;;;;;;;;6.06;100.00;95107.31;5125958;27;20356;-86
2021/12/08 07:21:56;;;;;;;;;;;;;;;6.05;100.00;95107.78;5125667;27;19924;-86
2021/12/08 07:24:25;;;;;;;;;;;;;;;6.09;100.00;95125.72;5109985;28;19947;-87
2021/12/08 07:26:55;;;;;;;;;;;;;;;6.10;100.00;95130.03;5110190;28;19970;-87
2021/12/08 07:29:25;;;;;;;;;;;;;;;6.14;100.00;95118.72;5091812;28;19924;-86
2021/12/08 07:31:57;;;;;;;;;;;;;;;6.24;100.00;95120.09;5108294;28;19924;-85
2021/12/08 07:34:25;;;;;;;;;;;;;;;6.31;100.00;95130.75;5108827;28;19928;-87
2021/12/08 07:36:58;;;;;;;;;;;;;;;6.29;100.00;95136.00;5091581;28;19924;-85
2021/12/08 07:39:29;;;;;;;;;;;;;;;6.13;100.00;95128.28;5125567;28;19931;-86
2021/12/08 07:42:08;;;;;;;;;;;;;;;6.17;100.00;95134.38;5102850;28;20030;-88
2021/12/08 07:44:35;;;;;;;;;;;;;;;6.13;100.00;95129.06;5088748;28;19928;-88
2021/12/08 07:47:04;;;;;;;;;;;;;;;6.29;100.00;95144.31;5077241;28;19928;-89
2021/12/08 07:49:33;;;;;;;;;;;;;;;6.38;100.00;95138.59;5071864;28;19924;-89
2021/12/08 07:52:05;;;;;;;;;;;;;;;6.30;100.00;95148.63;5083708;28;19970;-88
2021/12/08 07:54:33;;;;;;;;;;;;;;;6.32;100.00;95135.78;5058768;28;19946;-89
2021/12/08 07:57:01;;;;;;;;;;;;;;;6.21;100.00;95157.09;5087336;28;20390;-88
2021/12/08 07:59:28;;;;;;;;;;;;;;;6.13;100.00;95142.16;5087926;28;19929;-89
2021/12/08 08:01:58;;;;;;;;;;;;;;;5.94;100.00;95157.56;5073462;28;20031;-89
2021/12/08 08:04:27;;;;;;;;;;;;;;;6.05;100.00;95163.22;5092759;28;19928;-88
2021/12/08 08:06:56;;;;;;;;;;;;;;;5.88;100.00;95162.28;5088052;28;20023;-88
2021/12/08 08:09:27;;;;;;;;;;;;;;;5.97;100.00;95181.53;5075369;28;19931;-88
2021/12/08 08:11:57;;;;;;;;;;;;;;;6.06;100.00;95192.47;5091160;28;20015;-89
2021/12/08 08:14:27;;;;;;;;;;;;;;;5.79;100.00;95203.91;5060006;28;19931;-89
2021/12/08 08:16:57;;;;;;;;;;;;;;;5.88;100.00;95206.59;5076801;28;19924;-90
2021/12/08 08:19:28;;;;;;;;;;;;;;;5.76;100.00;95210.41;5093770;28;19924;-88
2021/12/08 08:22:01;;;;;;;;;;;;;;;5.79;100.00;95220.53;5084254;28;19924;-89
2021/12/08 08:24:29;;;;;;;;;;;;;;;6.05;100.00;95211.09;5093689;28;19924;-89
2021/12/08 08:26:58;;;;;;;;;;;;;;;5.93;100.00;95208.66;5074888;28;19925;-88
2021/12/08 08:29:25;;;;;;;;;;;;;;;6.27;100.00;95216.13;5096110;28;19928;-88
2021/12/08 08:31:59;;;;;;;;;;;;;;;6.19;100.00;95210.25;5071671;28;19924;-89
2021/12/08 08:34:27;;;;;;;;;;;;;;;6.22;100.00;95214.81;5090324;28;19924;-89
2021/12/08 08:36:55;;;;;;;;;;;;;;;6.04;100.00;95231.72;5092010;28;19924;-87
2021/12/08 08:39:26;;;;;;;;;;;;;;;6.18;100.00;95241.22;5096037;28;19924;-87
2021/12/08 08:42:01;;;;;;;;;;;;;;;6.19;100.00;95245.50;5056871;28;19932;-88
2021/12/08 08:44:30;;;;;;;;;;;;;;;6.36;100.00;95241.66;5073407;28;19924;-88
2021/12/08 08:47:00;;;;;;;;;;;;;;;6.40;100.00;95258.88;5090098;28;19925;-88
2021/12/08 08:49:29;;;;;;;;;;;;;;;6.70;100.00;95270.53;5073267;28;19932;-88
2021/12/08 08:52:00;;;;;;;;;;;;;;;6.09;100.00;95288.47;5039972;28;19954;-89
2021/12/08 08:54:31;;;;;;;;;;;;;;;5.84;100.00;95295.44;5089282;28;19979;-88
2021/12/08 08:57:08;;;;;;;;;;;;;;;5.31;100.00;95273.47;5056701;28;19931;-88
2021/12/08 08:59:43;;;;;;;;;;;;;;;5.04;100.00;95295.88;5073254;28;19931;-88
2021/12/08 09:02:12;;;;;;;;;;;;;;;4.92;100.00;95310.75;5056651;28;19985;-88
2021/12/08 09:04:41;;;;;;;;;;;;;;;5.15;100.00;95323.75;5056764;28;19979;-87
2021/12/08 09:07:14;;;;;;;;;;;;;;;5.07;100.00;95322.59;5073523;28;19929;-88
2021/12/08 09:09:44;;;;;;;;;;;;;;;5.00;100.00;95333.28;5073157;28;19924;-88
2021/12/08 09:12:15;;;;;;;;;;;;;;;5.27;100.00;95325.47;5089454;28;19925;-88
2021/12/08 09:14:48;;;;;;;;;;;;;;;5.24;100.00;95342.28;5059179;28;19924;-89
2021/12/08 09:17:21;;;;;;;;;;;;;;;5.68;100.00;95336.69;5092584;28;19928;-88
2021/12/08 09:20:02;;;;;;;;;;;;;;;5.88;100.00;95345.09;5087237;28;20032;-83
2021/12/08 09:22:32;;;;;;;;;;;;;;;6.14;100.00;95345.94;5092044;28;20382;-85
2021/12/08 09:25:14;;;;;;;;;;;;;;;6.28;100.00;95361.78;5072939;28;20073;-86
2021/12/08 09:27:43;;;;;;;;;;;;;;;6.32;100.00;95365.09;5069741;28;19925;-86
2021/12/08 09:30:19;;;;;;;;;;;;;;;6.35;100.00;95370.44;5055671;28;20025;-86
2021/12/08 09:32:51;;;;;;;;;;;;;;;6.46;100.00;95372.59;5072532;28;20019;-86
2021/12/08 09:35:21;;;;;;;;;;;;;;;6.62;100.00;95385.94;5072318;28;19924;-86
2021/12/08 09:38:05;;;;;;;;;;;;;;;6.67;100.00;95376.91;5073297;28;19924;-86
2021/12/08 09:40:37;;;;;;;;;;;;;;;6.70;100.00;95387.03;5072640;28;19924;-84
2021/12/08 09:43:06;;;;;;;;;;;;;;;6.94;100.00;95391.09;5089287;28;19931;-85
2021/12/08 09:45:37;;;;;;;;;;;;;;;6.84;100.00;95403.63;5059340;28;19924;-86
2021/12/08 09:48:06;;;;;;;;;;;;;;;6.95;100.00;95403.72;5075621;28;19973;-89
2021/12/08 09:50:35;;;;;;;;;;;;;;;6.89;100.00;95399.38;5109215;28;19977;-87
2021/12/08 09:53:02;;;;;;;;;;;;;;;6.97;100.00;95400.47;5087267;28;20382;-88
2021/12/08 09:55:30;;;;;;;;;;;;;;;7.22;100.00;95413.63;5089192;28;20015;-89
2021/12/08 09:57:58;;;;;;;;;;;;;;;7.38;100.00;95407.47;5039889;28;20496;-89
2021/12/08 10:00:30;;;;;;;;;;;;;;;7.10;100.00;95415.50;5081106;28;19925;-87
2021/12/08 10:03:00;;;;;;;;;;;;;;;7.24;100.00;95436.09;5069673;28;19924;-89
2021/12/08 10:05:29;;;;;;;;;;;;;;;7.33;100.00;95449.81;5087458;28;19931;-87
2021/12/08 10:07:57;;;;;;;;;;;;;;;7.22;100.00;95455.28;5090920;28;19931;-89
2021/12/08 10:10:26;;;;;;;;;;;;;;;7.44;100.00;95455.50;5089869;28;19924;-85
2021/12/08 10:12:53;;;;;;;;;;;;;;;7.45;100.00;95457.03;5090620;28;19924;-86
2021/12/08 10:15:21;;;;;;;;;;;;;;;7.52;100.00;95451.06;5090544;28;19974;-84
2021/12/08 10:17:49;;;;;;;;;;;;;;;7.39;100.00;95476.41;5090095;28;20019;-82
2021/12/08 10:20:21;;;;;;;;;;;;;;;7.42;100.00;95469.13;5107497;28;20558;-88
2021/12/08 10:23:07;;;;;;;;;;;;;;;7.26;100.00;95489.13;5090912;28;19928;-86
2021/12/08 10:25:36;;;;;;;;;;;;;;;7.40;100.00;95502.16;5090163;28;19924;-85
2021/12/08 10:28:21;;;;;;;;;;;;;;;7.15;100.00;95491.75;5107113;28;19931;-85
2021/12/08 10:30:52;;;;;;;;;;;;;;;7.67;100.00;95492.59;5084376;28;19964;-86
2021/12/08 10:34:24;;;;;;;;;;;;;;;7.61;100.00;95514.78;5066859;28;19955;-87
2021/12/08 10:39:10;;;;;;;;;;;;;;;7.50;100.00;95534.09;5071431;28;19925;-88
2021/12/08 10:41:49;;;;;;;;;;;;;;;7.45;100.00;95550.69;5053685;28;19924;-90
2021/12/08 10:44:43;;;;;;;;;;;;;;;7.36;100.00;95559.94;5070386;28;20401;-89
2021/12/08 10:54:37;;;;;;;;;;;;;;;7.72;100.00;95587.16;5103528;28;20305;-84
2021/12/08 10:58:08;;;;;;;;;;;;;;;7.97;100.00;95589.19;5065514;28;19932;-90
2021/12/08 11:08:18;;;;;;;;;;;;;;;7.87;100.00;95615.63;5008866;28;20485;-88
2021/12/08 11:10:56;;;;;;;;;;;;;;;7.46;100.00;95619.66;5043151;28;19925;-88
2021/12/08 11:13:29;;;;;;;;;;;;;;;7.77;100.00;95633.66;5059231;28;20023;-88
2021/12/08 11:29:45;;;;;;;;;;;;;;;7.29;100.00;95660.28;4918411;28;19926;-89
2021/12/08 11:32:40;;;;;;;;;;;;;;;7.32;100.00;95667.66;4915488;29;20460;-88
2021/12/08 11:35:25;;;;;;;;;;;;;;;7.25;100.00;95662.50;4943649;29;19953;-85
2021/12/08 11:38:00;;;;;;;;;;;;;;;6.91;100.00;95652.13;4898574;29;20395;-87
2021/12/08 11:44:07;;;;;;;;;;;;;;;7.13;100.00;95696.91;4892643;29;20470;-86
2021/12/08 11:46:39;;;;;;;;;;;;;;;7.54;100.00;95706.88;4898890;29;20018;-88
2021/12/08 11:49:10;;;;;;;;;;;;;;;7.41;100.00;95705.66;4897537;29;19987;-88
2021/12/08 11:51:43;;;;;;;;;;;;;;;7.08;100.00;95714.22;4913727;29;19934;-86
2021/12/08 11:54:27;;;;;;;;;;;;;;;7.16;100.00;95723.72;4896464;29;19934;-86
2021/12/08 11:57:03;;;;;;;;;;;;;;;7.24;100.00;95720.03;4918091;28;19933;-86
2021/12/08 11:59:32;;;;;;;;;;;;;;;7.25;100.00;95718.03;4936081;29;20385;-86
2021/12/08 12:02:24;;;;;;;;;;;;;;;7.78;100.00;95737.25;4928810;28;19995;-86
2021/12/08 12:04:51;;;;;;;;;;;;;;;7.50;100.00;95742.41;5033378;28;19937;-86
2021/12/08 12:07:18;;;;;;;;;;;;;;;7.68;100.00;95746.97;5037064;28;19924;-87
2021/12/08 12:09:45;;;;;;;;;;;;;;;7.52;100.00;95762.13;5021823;28;19924;-87
2021/12/08 12:12:13;;;;;;;;;;;;;;;7.21;100.00;95757.09;5041548;28;20430;-87
2021/12/08 12:14:40;;;;;;;;;;;;;;;7.21;100.00;95754.31;5024481;28;19971;-86
2021/12/08 12:17:08;;;;;;;;;;;;;;;7.28;100.00;95776.13;5036632;28;20037;-88
2021/12/08 12:20:05;;;;;;;;;;;;;;;7.25;100.00;95781.91;5044555;28;20334;-88
2021/12/08 12:22:35;;;;;;;;;;;;;;;7.37;100.00;95766.94;5021782;28;19929;-86
2021/12/08 12:25:09;;;;;;;;;;;;;;;7.13;100.00;95774.63;5030430;28;19932;-88
2021/12/08 12:27:53;;;;;;;;;;;;;;;7.62;100.00;95788.53;5009051;28;19925;-85
2021/12/08 12:30:31;;;;;;;;;;;;;;;7.32;100.00;95787.06;5039741;28;20023;-81
2021/12/08 12:32:58;;;;;;;;;;;;;;;6.97;100.00;95798.06;5065269;28;19924;-81
2021/12/08 12:35:28;;;;;;;;;;;;;;;7.26;100.00;95797.31;5066426;28;19935;-82
2021/12/08 12:38:00;;;;;;;;;;;;;;;7.19;100.00;95800.47;5064151;28;19924;-81
2021/12/08 12:40:40;;;;;;;;;;;;;;;7.13;100.00;95805.19;5074830;28;19928;-81
2021/12/08 12:43:07;;;;;;;;;;;;;;;7.10;100.00;95800.56;5102310;28;19932;-81
2021/12/08 12:45:38;;;;;;;;;;;;;;;7.24;100.00;95802.56;5084957;28;19924;-81
2021/12/08 12:48:09;;;;;;;;;;;;;;;7.05;100.00;95804.00;5085468;28;19928;-82
2021/12/08 12:50:53;;;;;;;;;;;;;;;6.86;100.00;95795.09;5050295;28;20405;-81
2021/12/08 12:53:29;;;;;;;;;;;;;;;6.94;100.00;95812.91;5086518;28;19928;-80
2021/12/08 12:55:59;;;;;;;;;;;;;;;7.28;100.00;95819.81;5070902;28;19931;-81
2021/12/08 12:58:53;;;;;;;;;;;;;;;7.38;100.00;95826.78;5084691;28;19970;-80
2021/12/08 13:01:34;;;;;;;;;;;;;;;7.07;100.00;95823.75;5064278;28;20156;-80
2021/12/08 13:04:10;;;;;;;;;;;;;;;7.30;100.00;95833.97;5085613;28;19963;-84
2021/12/08 13:07:01;;;;;;;;;;;;;;;7.10;100.00;95837.41;5039054;28;19925;-84
2021/12/08 13:09:37;;;;;;;;;;;;;;;7.35;100.00;95852.75;5082637;28;19959;-82
2021/12/08 13:12:15;;;;;;;;;;;;;;;7.36;100.00;95848.75;5083218;28;19959;-83
2021/12/08 13:14:45;;;;;;;;;;;;;;;7.03;100.00;95859.22;5083805;28;19930;-81
2021/12/08 13:17:24;;;;;;;;;;;;;;;7.29;100.00;95854.66;5067476;28;20366;-83
2021/12/08 13:19:56;;;;;;;;;;;;;;;7.31;100.00;95852.19;5100584;28;19924;-83
2021/12/08 13:22:40;;;;;;;;;;;;;;;7.14;100.00;95859.44;5054064;28;20466;-84
2021/12/08 13:25:38;;;;;;;;;;;;;;;7.34;100.00;95863.09;5084013;28;20491;-83
2021/12/08 13:28:16;;;;;;;;;;;;;;;7.07;100.00;95884.81;5101144;28;19968;-83
2021/12/08 13:30:45;;;;;;;;;;;;;;;7.13;100.00;95885.69;5081658;28;19984;-83
2021/12/08 13:33:33;;;;;;;;;;;;;;;7.20;100.00;95879.75;5062957;28;19925;-83
2021/12/08 13:36:28;;;;;;;;;;;;;;;6.72;100.00;95906.06;5065890;28;19924;-83
2021/12/08 13:38:59;;;;;;;;;;;;;;;6.84;100.00;95896.72;5080726;28;20039;-83
2021/12/08 13:41:30;;;;;;;;;;;;;;;6.78;100.00;95916.03;5080509;28;19954;-83
2021/12/08 13:44:02;;;;;;;;;;;;;;;6.99;100.00;95891.97;5081326;28;19958;-83
2021/12/08 13:46:49;;;;;;;;;;;;;;;6.61;100.00;95920.47;5085119;28;20410;-83
2021/12/08 13:49:18;;;;;;;;;;;;;;;5.96;100.00;95916.94;5097776;28;19932;-83
2021/12/08 13:52:01;;;;;;;;;;;;;;;5.73;100.00;95920.38;5065514;28;19985;-83
2021/12/08 13:54:31;;;;;;;;;;;;;;;5.79;100.00;95940.69;5066766;28;20012;-83
2021/12/08 13:57:03;;;;;;;;;;;;;;;5.89;100.00;95942.25;5084006;28;19924;-87
2021/12/08 13:59:49;;;;;;;;;;;;;;;6.02;100.00;95931.72;5082929;28;20012;-86
2021/12/08 14:02:17;;;;;;;;;;;;;;;6.17;100.00;95941.66;5076631;28;19932;-87
2021/12/08 14:04:47;;;;;;;;;;;;;;;6.04;100.00;95945.88;5040017;28;20019;-87
2021/12/08 14:07:18;;;;;;;;;;;;;;;5.88;100.00;95955.31;5100181;28;20148;-86
2021/12/08 14:09:48;;;;;;;;;;;;;;;5.88;100.00;95943.47;5084438;28;19924;-85
2021/12/08 14:12:17;;;;;;;;;;;;;;;5.78;100.00;95955.78;5082374;28;20164;-87
2021/12/08 14:14:57;;;;;;;;;;;;;;;5.83;100.00;95949.66;5081810;28;19924;-87
2021/12/08 14:17:30;;;;;;;;;;;;;;;5.93;100.00;95954.69;5074064;28;19989;-86
2021/12/08 14:20:00;;;;;;;;;;;;;;;5.97;100.00;95924.78;5076439;28;19924;-89
2021/12/08 14:22:38;;;;;;;;;;;;;;;5.88;100.00;95927.59;5075860;28;19930;-85
2021/12/08 14:25:05;;;;;;;;;;;;;;;5.65;100.00;95946.91;5081299;28;19928;-87
2021/12/08 14:27:33;;;;;;;;;;;;;;;5.76;100.00;95941.63;5060655;28;20382;-88